Paonia, CO

6:34 AM MDT on March 24, 2017 (GMT -0600)
Peony Moon - Town of Paonia | | Change Station

Elev 5688 ft 38.87 °N, 107.59 °W | Updated 0 second ago

Overcast
Overcast
38.7 °F
Feels Like 39 °F
N
0.0
Wind Variable Wind from East
Gusts 0.0 mph

Today
High -- | Low -- °F
--% Chance of Precip.
Yesterday
High -- | Low -- °F
Precip. -- in
Pressure 30.03 in
Visibility 10.0 miles
Clouds Scattered Clouds 6500 ft
Overcast 7000 ft
Windchill 39 °F
Dew Point 35 °F
Humidity 86%
Rainfall 0.00 in
Snow Depth Not available.
7:07 AM 7:26 PM
Waning Crescent, 15% visible
METAR KAJZ 241215Z AUTO 30015G19KT 10SM SCT065 OVC070 08/00 A3003 RMK AO2 T00780000
Pressure 30.03 in
Visibility 10.0 miles
Clouds Scattered Clouds 6500 ft
Overcast 7000 ft
Windchill 39 °F
Dew Point 35 °F
Humidity 86%
Rainfall 0.00 in
Snow Depth Not available.
7:07 AM 7:26 PM
Waning Crescent, 15% visible
METAR KAJZ 241215Z AUTO 30015G19KT 10SM SCT065 OVC070 08/00 A3003 RMK AO2 T00780000

Get Severe Weather Alerts

Thanks for signing up!

Be on the lookout for a verification email in your inbox.

You'll start receiving the daily forecast at 8 AM.

×

10-Day Weather Forecast

Almanac

Astronomy

Mar. 24, 2017 Rise Set
Actual Time
Civil Twilight
Nautical Twilight
Astronomical Twilight
Moon
Length of Visible Light
Length of Day
Tomorrow will be .
, % of the Moon is Illuminated

Today's Extremes

State Highs State Lows

Community

WunderPhotos

Upload Photos

1,962,540 photos uploaded!

WunderBlog® & News

Nearby

Air Quality

  Air Quality AQ Index Pollutant
Not available.

Snow Depth

Station Depth Elevation

Earthquake Activity

City Distance Mag. Time & Date
Minimum magnitude displayed is 2.5.

Earthquake Activity

City Distance Mag. Time & Date
Minimum magnitude displayed is 2.5.

Coastal Water Temperatures

Place Temperature

Stations

Nearby Weather Stations

Station Location Temp. Windchill Dew Point Humidity Wind Precip. Elev Updated Type
                   

Watches & Warnings

There are currently no watches in effect.